Time;durP1;ratioP1;P1;durP2;ratioP2;P2;SDS_P1;SDS_P2;PMS_P1;PMS_P2;Temp;Humidity;BMP_temperature;BMP_pressure;BME280_temperature;BME280_humidity;BME280_pressure;Samples;Min_cycle;Max_cycle;Signal;HPM_P1;HPM_P2
2022/11/28 00:00:26;;;;;;;3.83;3.40;;;21.20;87.40;;;;;;6193823;28;89481;-70
2022/11/28 00:03:28;;;;;;;3.67;3.38;;;21.10;87.40;;;;;;6210464;28;89144;-71
2022/11/28 00:06:31;;;;;;;3.85;3.55;;;21.10;87.40;;;;;;6189144;28;90140;-69
2022/11/28 00:09:33;;;;;;;3.80;3.40;;;21.10;87.50;;;;;;6206077;28;89485;-70
2022/11/28 00:12:35;;;;;;;3.75;3.25;;;21.10;87.50;;;;;;6192499;28;89412;-71
2022/11/28 00:15:37;;;;;;;3.30;3.00;;;21.10;87.50;;;;;;6205979;28;89188;-71
2022/11/28 00:18:39;;;;;;;3.40;3.10;;;21.00;87.50;;;;;;6193754;28;89310;-70
2022/11/28 00:21:43;;;;;;;3.42;3.10;;;21.00;87.50;;;;;;6194924;28;88053;-71
2022/11/28 00:24:45;;;;;;;3.33;3.03;;;21.00;87.50;;;;;;6189917;28;89125;-70
2022/11/28 00:27:47;;;;;;;3.63;3.33;;;21.00;87.50;;;;;;6218853;28;88361;-70
2022/11/28 00:30:49;;;;;;;3.60;3.28;;;21.00;87.50;;;;;;6206247;28;88993;-71
2022/11/28 00:33:51;;;;;;;3.35;3.05;;;21.00;87.60;;;;;;6193879;28;89118;-70
2022/11/28 00:36:55;;;;;;;4.57;3.53;;;21.00;87.70;;;;;;6205366;28;90350;-70
2022/11/28 00:39:57;;;;;;;4.28;3.70;;;21.00;87.70;;;;;;6205593;28;89283;-70
2022/11/28 00:42:59;;;;;;;3.08;2.80;;;21.00;87.60;;;;;;6206251;28;89114;-69
2022/11/28 00:46:01;;;;;;;3.35;3.05;;;20.90;87.50;;;;;;6205374;28;89067;-71
2022/11/28 00:49:04;;;;;;;3.28;2.97;;;21.00;87.50;;;;;;6206330;28;89291;-71
2022/11/28 00:52:07;;;;;;;3.67;3.20;;;20.90;87.50;;;;;;6186001;28;89129;-71
2022/11/28 00:55:09;;;;;;;3.40;3.10;;;20.90;87.50;;;;;;6185246;28;89252;-71
2022/11/28 00:58:11;;;;;;;3.15;2.88;;;20.90;87.60;;;;;;6195135;28;88459;-70
2022/11/28 01:01:16;;;;;;;3.03;2.78;;;20.90;87.60;;;;;;6206710;28;89154;-70
2022/11/28 01:04:18;;;;;;;3.70;3.28;;;20.90;87.70;;;;;;6185293;28;89142;-71
2022/11/28 01:07:21;;;;;;;3.33;3.03;;;20.90;87.60;;;;;;6188248;28;90178;-70
2022/11/28 01:10:23;;;;;;;3.40;3.10;;;20.90;87.60;;;;;;6206073;28;89301;-71
2022/11/28 01:13:25;;;;;;;3.47;3.17;;;20.90;87.60;;;;;;6196217;28;89801;-70
2022/11/28 01:16:28;;;;;;;3.20;2.90;;;20.90;87.50;;;;;;6196684;28;89267;-70
2022/11/28 01:19:30;;;;;;;3.35;3.05;;;20.90;87.60;;;;;;6195932;28;89568;-71
2022/11/28 01:22:34;;;;;;;3.28;2.97;;;20.80;87.50;;;;;;6185398;28;89295;-69
2022/11/28 01:25:36;;;;;;;3.95;3.28;;;20.80;87.50;;;;;;6189209;28;90826;-71
2022/11/28 01:28:38;;;;;;;3.10;2.80;;;20.80;87.50;;;;;;6187355;28;87437;-70
2022/11/28 01:31:40;;;;;;;3.20;2.90;;;20.80;87.50;;;;;;6193467;28;89391;-71
2022/11/28 01:34:42;;;;;;;3.60;3.00;;;20.80;87.50;;;;;;6203249;28;89160;-71
2022/11/28 01:37:45;;;;;;;3.30;3.00;;;20.80;87.50;;;;;;6201455;28;90150;-70
2022/11/28 01:40:47;;;;;;;4.22;3.20;;;20.80;87.50;;;;;;6202759;28;89150;-69
2022/11/28 01:43:58;;;;;;;3.30;3.00;;;20.80;87.50;;;;;;6189739;28;89072;-70
2022/11/28 01:47:00;;;;;;;3.60;2.97;;;20.70;87.40;;;;;;6194893;28;89250;-70
2022/11/28 01:50:05;;;;;;;3.10;2.80;;;20.80;87.50;;;;;;6206162;28;89345;-70
2022/11/28 01:53:11;;;;;;;3.33;3.03;;;20.80;87.50;;;;;;6184529;28;89230;-70
2022/11/28 01:56:17;;;;;;;3.90;3.30;;;20.70;87.50;;;;;;6183710;28;89056;-70
2022/11/28 01:59:21;;;;;;;3.67;3.13;;;20.70;87.40;;;;;;6203424;28;88359;-69
2022/11/28 02:02:29;;;;;;;3.22;2.92;;;20.70;87.40;;;;;;6195647;28;89116;-70
2022/11/28 02:05:31;;;;;;;3.75;3.08;;;20.70;87.30;;;;;;6190738;28;89169;-71
2022/11/28 02:08:36;;;;;;;3.20;2.92;;;20.70;87.40;;;;;;6180962;28;90091;-70
2022/11/28 02:12:06;;;;;;;3.17;2.85;;;20.70;87.40;;;;;;6184529;28;89079;-70
2022/11/28 02:15:22;;;;;;;3.17;2.88;;;20.70;87.40;;;;;;6192642;28;89301;-70
2022/11/28 02:18:34;;;;;;;3.17;2.88;;;20.70;87.30;;;;;;6206458;28;89331;-70
2022/11/28 02:21:58;;;;;;;4.75;3.22;;;20.70;87.30;;;;;;6199852;28;89534;-70
2022/11/28 02:25:21;;;;;;;3.30;2.95;;;20.70;87.40;;;;;;6198449;28;87982;-71
2022/11/28 02:28:44;;;;;;;3.40;3.10;;;20.70;87.30;;;;;;6199517;28;89249;-70
2022/11/28 02:32:14;;;;;;;3.20;2.90;;;20.70;87.30;;;;;;6204993;28;88573;-70
2022/11/28 02:35:22;;;;;;;2.72;2.53;;;20.60;87.30;;;;;;6197155;28;89526;-70
2022/11/28 02:38:48;;;;;;;2.83;2.63;;;20.70;87.40;;;;;;6191739;28;89271;-70
2022/11/28 02:41:56;;;;;;;3.97;3.10;;;20.70;87.30;;;;;;6188582;28;90076;-70
2022/11/28 02:45:06;;;;;;;2.83;2.58;;;20.60;87.30;;;;;;6200923;28;89271;-70
2022/11/28 02:48:13;;;;;;;3.35;2.80;;;20.60;87.40;;;;;;6208322;28;89103;-70
2022/11/28 02:51:23;;;;;;;3.55;3.00;;;20.60;87.30;;;;;;6197292;28;89224;-70
2022/11/28 02:54:27;;;;;;;3.40;2.75;;;20.60;87.30;;;;;;6197188;28;89182;-71
2022/11/28 02:57:36;;;;;;;2.78;2.58;;;20.60;87.30;;;;;;6208964;28;89591;-69
2022/11/28 03:00:39;;;;;;;2.65;2.45;;;20.60;87.30;;;;;;6193183;28;88060;-70
2022/11/28 03:03:56;;;;;;;3.30;3.00;;;20.60;87.30;;;;;;6199241;28;88084;-70
2022/11/28 03:07:06;;;;;;;3.10;2.80;;;20.60;87.40;;;;;;6208753;28;89663;-71
2022/11/28 03:10:20;;;;;;;3.15;2.80;;;20.60;87.50;;;;;;6202128;28;89482;-70
2022/11/28 03:13:30;;;;;;;4.63;3.15;;;20.60;87.50;;;;;;6184394;28;90542;-70
2022/11/28 03:16:38;;;;;;;3.03;2.72;;;20.60;87.50;;;;;;6196892;28;89282;-71
2022/11/28 03:19:46;;;;;;;3.05;2.80;;;20.60;87.50;;;;;;6195208;28;89221;-71
2022/11/28 03:23:00;;;;;;;3.03;2.72;;;20.50;87.40;;;;;;6215038;28;89109;-70
2022/11/28 03:26:09;;;;;;;3.08;2.60;;;20.50;87.40;;;;;;6194112;28;89215;-71
2022/11/28 03:29:18;;;;;;;2.95;2.72;;;20.50;87.40;;;;;;6200437;28;89405;-70
2022/11/28 03:32:25;;;;;;;2.90;2.70;;;20.50;87.30;;;;;;6195969;28;89143;-70
2022/11/28 03:35:32;;;;;;;3.08;2.63;;;20.50;87.50;;;;;;6211895;28;88477;-71
2022/11/28 03:38:38;;;;;;;3.88;3.00;;;20.50;87.40;;;;;;6215146;28;89421;-70
2022/11/28 03:41:47;;;;;;;4.60;3.17;;;20.50;87.40;;;;;;6205832;28;89125;-70
2022/11/28 03:44:54;;;;;;;2.92;2.63;;;20.50;87.40;;;;;;6198085;28;90125;-70
2022/11/28 03:48:00;;;;;;;2.88;2.58;;;20.50;87.50;;;;;;6182906;28;89162;-71
2022/11/28 03:51:09;;;;;;;2.65;2.45;;;20.50;88.30;;;;;;6182165;28;88170;-70
2022/11/28 03:54:16;;;;;;;2.97;2.72;;;20.50;87.50;;;;;;6199846;28;89531;-70
2022/11/28 03:57:24;;;;;;;3.25;2.95;;;20.50;87.50;;;;;;6206711;28;89136;-71
2022/11/28 04:00:27;;;;;;;4.68;3.22;;;20.50;87.50;;;;;;6209094;28;89135;-71
2022/11/28 04:03:41;;;;;;;3.83;3.05;;;20.50;87.50;;;;;;6222346;28;89174;-70
2022/11/28 04:06:55;;;;;;;3.70;2.95;;;20.50;87.50;;;;;;6206321;28;88497;-71
2022/11/28 04:10:03;;;;;;;3.28;2.72;;;20.50;87.50;;;;;;6206457;28;89087;-70
2022/11/28 04:13:12;;;;;;;3.65;2.80;;;20.40;87.40;;;;;;6206232;28;89479;-71
2022/11/28 04:16:20;;;;;;;3.20;2.90;;;20.50;87.50;;;;;;6181739;28;90179;-70
2022/11/28 04:19:30;;;;;;;2.60;2.40;;;20.40;87.30;;;;;;6190617;28;89077;-71
2022/11/28 04:22:38;;;;;;;3.03;2.70;;;20.40;87.40;;;;;;6196608;28;89093;-71
2022/11/28 04:25:46;;;;;;;3.53;2.78;;;20.40;87.40;;;;;;6184414;28;88019;-70
2022/11/28 04:28:51;;;;;;;3.42;2.80;;;20.40;87.30;;;;;;6205709;28;89701;-70
2022/11/28 04:31:57;;;;;;;3.35;2.80;;;20.40;87.30;;;;;;6205361;28;89131;-70
2022/11/28 04:35:04;;;;;;;3.00;2.70;;;20.40;87.30;;;;;;6195304;28;88340;-70
2022/11/28 04:38:09;;;;;;;2.65;2.45;;;20.40;87.30;;;;;;6195369;28;87397;-70
2022/11/28 04:41:18;;;;;;;3.28;2.78;;;20.40;87.30;;;;;;6205347;28;89669;-70
2022/11/28 04:44:26;;;;;;;3.10;2.80;;;20.40;87.30;;;;;;6200692;28;89174;-69
2022/11/28 04:47:28;;;;;;;3.00;2.70;;;20.40;87.30;;;;;;6205195;28;90160;-70
2022/11/28 04:50:47;;;;;;;3.08;2.75;;;20.40;87.30;;;;;;6203149;28;89171;-69
2022/11/28 04:54:00;;;;;;;3.65;2.85;;;20.50;87.30;;;;;;6204293;28;89128;-70
2022/11/28 04:57:14;;;;;;;2.88;2.65;;;20.50;87.20;;;;;;6202106;28;89291;-71
2022/11/28 05:00:19;;;;;;;2.95;2.65;;;20.50;87.10;;;;;;6204267;28;89578;-70
2022/11/28 05:03:22;;;;;;;2.70;2.42;;;20.50;87.00;;;;;;6199136;28;89151;-70
2022/11/28 05:06:29;;;;;;;3.50;2.85;;;20.50;87.00;;;;;;6206014;28;87970;-70
2022/11/28 05:09:33;;;;;;;2.90;2.60;;;20.50;87.00;;;;;;6205582;28;88605;-71
2022/11/28 05:12:35;;;;;;;2.92;2.63;;;20.50;86.90;;;;;;6185426;28;89710;-70
2022/11/28 05:15:37;;;;;;;2.90;2.50;;;20.50;86.80;;;;;;6189169;28;89600;-70
2022/11/28 05:18:39;;;;;;;2.92;2.60;;;20.60;86.80;;;;;;6191136;28;90061;-70
2022/11/28 05:21:41;;;;;;;2.67;2.47;;;20.60;86.90;;;;;;6185414;28;89492;-71
2022/11/28 05:24:45;;;;;;;2.97;2.65;;;20.60;86.80;;;;;;6204655;28;88185;-70
2022/11/28 05:27:47;;;;;;;3.00;2.60;;;20.60;86.80;;;;;;6205062;28;89337;-70
2022/11/28 05:30:56;;;;;;;2.65;2.45;;;20.70;86.70;;;;;;6204594;28;89353;-69
2022/11/28 05:33:59;;;;;;;2.70;2.47;;;20.70;86.60;;;;;;6204013;28;89129;-70
2022/11/28 05:37:01;;;;;;;3.88;2.90;;;20.70;86.60;;;;;;6203632;28;89214;-70
2022/11/28 05:40:05;;;;;;;2.83;2.50;;;20.70;86.60;;;;;;6194718;28;88750;-71
2022/11/28 05:43:07;;;;;;;2.67;2.45;;;20.70;86.50;;;;;;6194538;28;89408;-70
2022/11/28 05:46:09;;;;;;;2.65;2.45;;;20.80;86.50;;;;;;6200018;28;89734;-70
2022/11/28 05:49:11;;;;;;;2.45;2.25;;;20.80;86.50;;;;;;6208339;28;90223;-70
2022/11/28 05:52:13;;;;;;;2.40;2.20;;;20.80;86.40;;;;;;6196834;28;90570;-70
2022/11/28 05:55:17;;;;;;;2.45;2.25;;;20.80;86.40;;;;;;6208902;28;89225;-69
2022/11/28 05:58:19;;;;;;;2.50;2.30;;;20.80;86.30;;;;;;6209308;28;89623;-70
2022/11/28 06:01:23;;;;;;;3.97;2.92;;;20.80;86.30;;;;;;6207957;28;89188;-70
2022/11/28 06:04:25;;;;;;;2.50;2.30;;;20.90;86.30;;;;;;6209825;28;89329;-70
2022/11/28 06:07:27;;;;;;;2.90;2.60;;;20.90;86.20;;;;;;6185266;28;88137;-70
2022/11/28 06:10:30;;;;;;;3.00;2.50;;;20.90;86.20;;;;;;6198789;28;87294;-70
2022/11/28 06:13:32;;;;;;;2.63;2.42;;;20.90;86.10;;;;;;6202817;28;89033;-70
2022/11/28 06:16:35;;;;;;;2.42;2.22;;;20.90;86.10;;;;;;6198037;28;88043;-70
2022/11/28 06:19:37;;;;;;;2.47;2.28;;;20.90;86.10;;;;;;6205980;28;90055;-70
2022/11/28 06:22:39;;;;;;;2.60;2.40;;;21.00;86.00;;;;;;6197873;28;89033;-69
2022/11/28 06:25:43;;;;;;;2.60;2.40;;;21.00;86.00;;;;;;6208866;28;90869;-70
2022/11/28 06:28:45;;;;;;;2.72;2.50;;;21.00;86.00;;;;;;6208524;28;90687;-68
2022/11/28 06:31:47;;;;;;;2.55;2.35;;;21.00;86.00;;;;;;6208678;28;89351;-70
2022/11/28 06:34:49;;;;;;;2.85;2.60;;;21.00;86.00;;;;;;6197095;28;89377;-71
2022/11/28 06:37:51;;;;;;;2.85;2.50;;;21.00;86.00;;;;;;6207864;28;89195;-69
2022/11/28 06:40:57;;;;;;;2.42;2.22;;;21.00;85.80;;;;;;6208730;28;88635;-70
2022/11/28 06:43:59;;;;;;;2.75;2.50;;;21.00;85.80;;;;;;6206662;28;89352;-70
2022/11/28 06:47:01;;;;;;;2.83;2.35;;;21.00;85.80;;;;;;6198642;28;89188;-70
2022/11/28 06:50:04;;;;;;;2.35;2.15;;;21.00;85.80;;;;;;6206904;28;90161;-71
2022/11/28 06:53:06;;;;;;;2.60;2.40;;;21.00;85.80;;;;;;6198665;28;89165;-70
2022/11/28 06:56:12;;;;;;;2.53;2.33;;;21.10;85.80;;;;;;6203167;28;89587;-70
2022/11/28 06:59:14;;;;;;;2.50;2.30;;;21.10;85.80;;;;;;6208479;28;88815;-70
2022/11/28 07:02:16;;;;;;;2.60;2.40;;;21.10;85.70;;;;;;6199920;28;91617;-70
2022/11/28 07:05:20;;;;;;;2.50;2.30;;;21.00;85.60;;;;;;6202863;28;87058;-70
2022/11/28 07:08:22;;;;;;;2.63;2.42;;;21.10;85.60;;;;;;6207966;28;89235;-70
2022/11/28 07:11:27;;;;;;;2.47;2.28;;;21.10;85.60;;;;;;6207651;28;87295;-70
2022/11/28 07:14:32;;;;;;;2.70;2.40;;;21.10;85.60;;;;;;6197648;28;89132;-70
2022/11/28 07:17:35;;;;;;;2.67;2.25;;;21.10;85.60;;;;;;6204369;28;89266;-69
2022/11/28 07:20:37;;;;;;;2.70;2.50;;;21.10;85.50;;;;;;6208150;28;90114;-70
2022/11/28 07:23:39;;;;;;;2.40;2.20;;;21.10;85.50;;;;;;6188986;28;89278;-70
2022/11/28 07:26:42;;;;;;;2.50;2.30;;;21.10;85.50;;;;;;6203742;28;89133;-69
2022/11/28 07:29:44;;;;;;;2.72;2.53;;;21.10;85.50;;;;;;6206855;28;89204;-70
2022/11/28 07:32:46;;;;;;;3.03;2.40;;;21.10;85.50;;;;;;6206958;28;88127;-70
2022/11/28 07:35:48;;;;;;;2.83;2.30;;;21.10;85.50;;;;;;6208466;28;88436;-70
2022/11/28 07:38:53;;;;;;;2.65;2.40;;;21.10;85.40;;;;;;6211783;28;88242;-70
2022/11/28 07:41:56;;;;;;;3.38;2.70;;;21.10;85.30;;;;;;6200546;28;87317;-70
2022/11/28 07:44:58;;;;;;;2.38;2.17;;;21.20;85.40;;;;;;6199763;28;89123;-70
2022/11/28 07:48:00;;;;;;;2.38;2.17;;;21.20;85.40;;;;;;6202069;28;89126;-70
2022/11/28 07:51:05;;;;;;;2.60;2.40;;;21.20;85.30;;;;;;6193964;28;91133;-70
2022/11/28 07:54:08;;;;;;;2.63;2.42;;;21.20;85.40;;;;;;6206829;28;89122;-70
2022/11/28 07:57:11;;;;;;;2.60;2.40;;;21.20;85.40;;;;;;6193092;28;88300;-70
2022/11/28 08:00:15;;;;;;;3.33;2.88;;;21.20;85.30;;;;;;6205167;28;91439;-70
2022/11/28 08:03:18;;;;;;;2.80;2.38;;;21.20;85.30;;;;;;6187123;28;88916;-69
2022/11/28 08:06:22;;;;;;;4.05;2.83;;;21.20;85.30;;;;;;6204982;28;89105;-70
2022/11/28 08:09:24;;;;;;;2.83;2.53;;;21.20;86.10;;;;;;6182748;28;88927;-70
2022/11/28 08:12:27;;;;;;;2.85;2.55;;;21.20;85.30;;;;;;6208843;28;87430;-69
2022/11/28 08:15:30;;;;;;;2.40;2.20;;;21.20;85.20;;;;;;6192799;28;89563;-70
2022/11/28 08:18:33;;;;;;;2.70;2.33;;;21.20;85.20;;;;;;6205669;28;89150;-70
2022/11/28 08:21:35;;;;;;;3.03;2.72;;;21.20;85.20;;;;;;6202334;28;90263;-70
2022/11/28 08:24:37;;;;;;;2.80;2.60;;;21.20;85.30;;;;;;6206759;28;87710;-70
2022/11/28 08:27:40;;;;;;;2.67;2.47;;;21.20;85.20;;;;;;6206395;28;89324;-70
2022/11/28 08:30:42;;;;;;;2.33;2.13;;;21.20;85.30;;;;;;6197300;28;89193;-70
2022/11/28 08:33:46;;;;;;;2.75;2.45;;;21.20;85.20;;;;;;6199992;28;89195;-71
2022/11/28 08:36:49;;;;;;;2.55;2.35;;;21.20;85.10;;;;;;6206863;28;89279;-69
2022/11/28 08:39:51;;;;;;;2.50;2.30;;;21.20;85.10;;;;;;6205572;28;89835;-70
2022/11/28 08:42:54;;;;;;;2.70;2.50;;;21.30;85.10;;;;;;6205794;28;87236;-70
2022/11/28 08:45:56;;;;;;;2.67;2.47;;;21.30;85.10;;;;;;6204086;28;89517;-70
2022/11/28 08:49:00;;;;;;;2.72;2.45;;;21.30;85.10;;;;;;6193592;28;89510;-70
2022/11/28 08:52:03;;;;;;;2.95;2.40;;;21.30;85.10;;;;;;6205950;28;90252;-70
2022/11/28 08:55:05;;;;;;;2.60;2.40;;;21.30;85.10;;;;;;6206044;28;91729;-70
2022/11/28 08:58:09;;;;;;;2.65;2.45;;;21.30;85.10;;;;;;6192846;28;89158;-70
2022/11/28 09:01:16;;;;;;;2.60;2.40;;;21.30;85.10;;;;;;6205597;28;89222;-70
2022/11/28 09:04:18;;;;;;;2.88;2.58;;;21.30;85.10;;;;;;6193897;28;89124;-70
2022/11/28 09:07:20;;;;;;;2.75;2.55;;;21.30;85.00;;;;;;6194031;28;91495;-70
2022/11/28 09:10:23;;;;;;;2.60;2.40;;;21.30;85.00;;;;;;6195896;28;89285;-70
2022/11/28 09:13:26;;;;;;;3.15;2.42;;;21.30;85.00;;;;;;6186762;28;88225;-71
2022/11/28 09:16:28;;;;;;;2.60;2.40;;;21.30;85.00;;;;;;6182224;28;89311;-70
2022/11/28 09:19:31;;;;;;;2.90;2.60;;;21.30;84.90;;;;;;6202925;28;87959;-71
2022/11/28 09:22:33;;;;;;;2.53;2.30;;;21.30;84.80;;;;;;6192872;28;92781;-70
2022/11/28 09:25:35;;;;;;;2.47;2.28;;;21.30;84.80;;;;;;6193314;28;92991;-70
2022/11/28 09:28:38;;;;;;;2.85;2.55;;;21.40;85.00;;;;;;6180724;28;89258;-70
2022/11/28 09:31:40;;;;;;;2.83;2.50;;;21.30;84.80;;;;;;6195744;28;89403;-70
2022/11/28 09:34:42;;;;;;;2.35;2.15;;;21.40;85.00;;;;;;6205523;28;89490;-70
2022/11/28 09:37:45;;;;;;;3.05;2.60;;;21.30;84.80;;;;;;6195728;28;89215;-70
2022/11/28 09:40:47;;;;;;;3.15;2.80;;;21.40;84.90;;;;;;6192629;28;88958;-70
2022/11/28 09:43:52;;;;;;;3.28;2.40;;;21.40;84.90;;;;;;6205921;28;88447;-69
2022/11/28 09:47:00;;;;;;;2.67;2.45;;;21.40;84.90;;;;;;6195505;28;89353;-69
2022/11/28 09:50:09;;;;;;;2.95;2.40;;;21.40;84.90;;;;;;6202697;28;89239;-69
2022/11/28 09:53:20;;;;;;;2.60;2.40;;;21.40;84.90;;;;;;6202993;28;91323;-69
2022/11/28 09:56:22;;;;;;;2.88;2.58;;;21.40;84.90;;;;;;6183465;28;89339;-70
2022/11/28 09:59:27;;;;;;;2.55;2.35;;;21.40;84.90;;;;;;6200384;28;89007;-70
2022/11/28 10:02:35;;;;;;;2.47;2.28;;;21.40;84.90;;;;;;6195576;28;89511;-70
2022/11/28 10:05:44;;;;;;;2.45;2.25;;;21.40;84.90;;;;;;6203381;28;89492;-69
2022/11/28 10:09:06;;;;;;;2.67;2.47;;;21.40;84.90;;;;;;6204549;28;89087;-70
2022/11/28 10:12:24;;;;;;;2.30;2.10;;;21.40;84.90;;;;;;6203618;28;88312;-71
2022/11/28 10:15:40;;;;;;;2.33;2.13;;;21.40;84.80;;;;;;6189966;28;88583;-70
2022/11/28 10:18:47;;;;;;;2.83;2.60;;;21.40;84.80;;;;;;6205017;28;89237;-70
2022/11/28 10:21:54;;;;;;;2.50;2.30;;;21.40;84.80;;;;;;6189995;28;89133;-71
2022/11/28 10:25:00;;;;;;;2.58;2.38;;;21.40;84.70;;;;;;6197784;28;90157;-70
2022/11/28 10:28:06;;;;;;;2.53;2.30;;;21.40;84.80;;;;;;6193119;28;89694;-70
2022/11/28 10:31:15;;;;;;;2.42;2.22;;;21.40;84.70;;;;;;6199223;28;89134;-69
2022/11/28 10:34:24;;;;;;;2.53;2.33;;;21.40;84.70;;;;;;6206250;28;89212;-70
2022/11/28 10:37:29;;;;;;;2.97;2.60;;;21.40;84.70;;;;;;6205162;28;89056;-70
2022/11/28 10:40:41;;;;;;;2.88;2.55;;;21.40;84.70;;;;;;6186711;28;89152;-70
2022/11/28 10:43:50;;;;;;;3.28;2.50;;;21.40;84.70;;;;;;6207253;28;89411;-70
2022/11/28 10:47:01;;;;;;;2.47;2.28;;;21.50;84.80;;;;;;6195989;28;88634;-70
2022/11/28 10:50:06;;;;;;;2.53;2.33;;;21.40;84.70;;;;;;6194180;28;89013;-70
2022/11/28 10:53:17;;;;;;;2.42;2.22;;;21.40;84.70;;;;;;6206162;28;88433;-71
2022/11/28 10:56:30;;;;;;;2.60;2.35;;;21.40;84.70;;;;;;6196235;28;90016;-70
2022/11/28 10:59:41;;;;;;;2.42;2.22;;;21.40;84.70;;;;;;6208225;28;89353;-70
2022/11/28 11:02:46;;;;;;;2.30;2.10;;;21.50;84.80;;;;;;6195527;28;89212;-70
2022/11/28 11:05:48;;;;;;;2.28;2.08;;;21.50;84.70;;;;;;6207746;28;90561;-70
2022/11/28 11:08:50;;;;;;;2.60;2.40;;;21.50;84.70;;;;;;6206549;28;89194;-70
2022/11/28 11:11:59;;;;;;;3.08;2.70;;;21.40;84.70;;;;;;6207036;28;88144;-70
2022/11/28 11:15:16;;;;;;;3.08;2.58;;;21.50;85.60;;;;;;6189394;28;89098;-70
2022/11/28 11:18:25;;;;;;;2.88;2.40;;;21.50;84.70;;;;;;6198032;28;87288;-70
2022/11/28 11:21:27;;;;;;;2.85;2.50;;;21.40;84.60;;;;;;6193448;28;89237;-70
2022/11/28 11:24:29;;;;;;;2.65;2.33;;;21.50;84.70;;;;;;6208579;28;89074;-69
2022/11/28 11:27:32;;;;;;;3.33;2.53;;;21.40;84.50;;;;;;6206200;28;90391;-70
2022/11/28 11:30:37;;;;;;;3.20;2.63;;;21.50;84.60;;;;;;6207250;28;89169;-70
2022/11/28 11:33:40;;;;;;;2.85;2.55;;;21.50;84.60;;;;;;6208247;28;89073;-71
2022/11/28 11:36:43;;;;;;;2.47;2.28;;;21.50;84.60;;;;;;6198669;28;89249;-70
2022/11/28 11:39:49;;;;;;;2.60;2.40;;;21.50;84.60;;;;;;6205103;28;89236;-70
2022/11/28 11:42:54;;;;;;;2.90;2.60;;;21.50;85.50;;;;;;6198012;28;89048;-70
2022/11/28 11:46:08;;;;;;;2.60;2.40;;;21.50;84.60;;;;;;6203867;28;89288;-69
2022/11/28 11:49:28;;;;;;;3.08;2.60;;;21.50;84.60;;;;;;6206756;28;88932;-70
2022/11/28 11:52:31;;;;;;;2.65;2.45;;;21.50;84.60;;;;;;6205894;28;89184;-69
2022/11/28 11:55:43;;;;;;;3.35;2.45;;;21.50;84.60;;;;;;6206693;28;89024;-70
2022/11/28 11:58:49;;;;;;;2.83;2.42;;;21.50;84.60;;;;;;6205316;28;90451;-70
2022/11/28 12:01:59;;;;;;;2.55;2.35;;;21.50;84.60;;;;;;6183536;28;89106;-69
2022/11/28 12:05:05;;;;;;;2.35;2.15;;;21.50;84.60;;;;;;6195399;28;89145;-70
2022/11/28 12:08:15;;;;;;;2.50;2.30;;;21.50;84.60;;;;;;6187042;28;87999;-71
2022/11/28 12:11:21;;;;;;;2.90;2.60;;;21.50;84.70;;;;;;6204726;28;89389;-70
2022/11/28 12:14:30;;;;;;;2.70;2.40;;;21.50;84.60;;;;;;6192833;28;89353;-71
2022/11/28 12:17:44;;;;;;;2.92;2.45;;;21.50;84.60;;;;;;6206686;28;90079;-70
2022/11/28 12:21:06;;;;;;;2.50;2.30;;;21.50;84.60;;;;;;6195920;28;88401;-71
2022/11/28 12:24:11;;;;;;;2.72;2.50;;;21.50;84.70;;;;;;6195391;28;89082;-70
2022/11/28 12:27:26;;;;;;;2.70;2.50;;;21.50;84.60;;;;;;6207821;28;89068;-71
2022/11/28 12:30:44;;;;;;;2.75;2.53;;;21.50;84.70;;;;;;6194630;28;90387;-70
2022/11/28 12:33:56;;;;;;;2.75;2.38;;;21.50;84.70;;;;;;6195264;28;89450;-71
2022/11/28 12:37:09;;;;;;;2.45;2.10;;;21.50;84.70;;;;;;6195160;28;89280;-70
2022/11/28 12:40:20;;;;;;;3.28;2.42;;;21.50;84.70;;;;;;6182200;28;89081;-70
2022/11/28 12:43:33;;;;;;;2.58;2.38;;;21.50;84.70;;;;;;6205309;28;89166;-70
2022/11/28 12:46:43;;;;;;;2.40;2.20;;;21.50;84.70;;;;;;6197008;28;89158;-71
2022/11/28 12:49:57;;;;;;;2.40;2.20;;;21.50;84.70;;;;;;6193802;28;89801;-70
2022/11/28 12:53:19;;;;;;;2.42;2.22;;;21.50;84.60;;;;;;6193946;28;88360;-70
2022/11/28 12:56:35;;;;;;;2.42;2.22;;;21.50;84.60;;;;;;6194397;28;89223;-70
2022/11/28 12:59:45;;;;;;;2.30;2.10;;;21.60;84.70;;;;;;6182538;28;89382;-70
2022/11/28 13:03:00;;;;;;;2.45;2.25;;;21.50;84.60;;;;;;6181985;28;90224;-70
2022/11/28 13:06:12;;;;;;;2.38;2.17;;;21.50;84.60;;;;;;6195124;28;89214;-70
2022/11/28 13:09:27;;;;;;;2.58;2.38;;;21.50;84.60;;;;;;6194051;28;89191;-69
2022/11/28 13:12:45;;;;;;;2.55;2.20;;;21.60;84.70;;;;;;6194773;28;89821;-70
2022/11/28 13:15:58;;;;;;;2.30;2.10;;;21.50;84.60;;;;;;6193157;28;88006;-68
2022/11/28 13:19:08;;;;;;;2.50;2.30;;;21.50;84.70;;;;;;6205279;28;89238;-71
2022/11/28 13:22:14;;;;;;;2.50;2.30;;;21.50;84.70;;;;;;6194748;28;89180;-69
2022/11/28 13:25:24;;;;;;;2.78;2.58;;;21.50;84.70;;;;;;6203467;28;88340;-70
2022/11/28 13:28:36;;;;;;;2.42;2.22;;;21.50;84.80;;;;;;6197634;28;89176;-70
2022/11/28 13:31:44;;;;;;;2.80;2.50;;;21.50;84.90;;;;;;6190756;28;89164;-68
2022/11/28 13:34:46;;;;;;;3.20;2.30;;;21.40;84.90;;;;;;6198090;28;90081;-70
2022/11/28 13:37:56;;;;;;;2.42;2.22;;;21.50;84.90;;;;;;6198283;28;90231;-69
2022/11/28 13:41:04;;;;;;;2.50;2.30;;;21.40;84.90;;;;;;6190246;28;89680;-70
2022/11/28 13:44:14;;;;;;;3.00;2.70;;;21.40;85.00;;;;;;6197215;28;89088;-70
2022/11/28 13:47:27;;;;;;;3.65;2.78;;;21.40;84.90;;;;;;6192894;28;89136;-70
2022/11/28 13:50:35;;;;;;;2.85;2.55;;;21.40;84.90;;;;;;6194499;28;89252;-71
2022/11/28 13:53:37;;;;;;;2.65;2.25;;;21.40;84.90;;;;;;6193605;28;88142;-70
2022/11/28 13:56:41;;;;;;;2.72;2.53;;;21.40;84.90;;;;;;6205182;28;87141;-68
2022/11/28 13:59:49;;;;;;;3.55;2.47;;;21.40;84.90;;;;;;6195650;28;89055;-70
2022/11/28 14:02:54;;;;;;;2.38;2.17;;;21.40;84.90;;;;;;6189566;28;89183;-70
2022/11/28 14:05:59;;;;;;;2.50;2.30;;;21.40;84.90;;;;;;6204433;28;90971;-70
2022/11/28 14:09:05;;;;;;;2.60;2.40;;;21.40;84.90;;;;;;6195925;28;89223;-70
2022/11/28 14:12:19;;;;;;;3.03;2.35;;;21.40;84.90;;;;;;6199994;28;88064;-70
2022/11/28 14:15:29;;;;;;;2.65;2.40;;;21.40;84.90;;;;;;6192390;28;89153;-70
2022/11/28 14:18:48;;;;;;;2.53;2.25;;;21.40;84.80;;;;;;6200516;28;89173;-70
2022/11/28 14:22:04;;;;;;;2.70;2.50;;;21.50;84.80;;;;;;6196340;28;88304;-70
2022/11/28 14:25:15;;;;;;;2.38;2.17;;;21.40;85.60;;;;;;6195948;28;89274;-71
2022/11/28 14:28:23;;;;;;;2.60;2.40;;;21.50;84.70;;;;;;6189091;28;88246;-70
2022/11/28 14:31:29;;;;;;;2.55;2.35;;;21.50;84.70;;;;;;6191378;28;89192;-70
2022/11/28 14:34:41;;;;;;;2.70;2.50;;;21.50;84.70;;;;;;6209067;28;89259;-70
2022/11/28 14:37:54;;;;;;;2.40;2.20;;;21.50;84.70;;;;;;6201797;28;90588;-70
2022/11/28 14:41:01;;;;;;;2.60;2.40;;;21.50;84.70;;;;;;6202641;28;89164;-70
2022/11/28 14:44:49;;;;;;;2.58;2.38;;;21.50;84.80;;;;;;6203861;28;89160;-70
2022/11/28 14:48:27;;;;;;;2.85;2.50;;;21.50;84.70;;;;;;6192707;28;89079;-70
2022/11/28 14:52:02;;;;;;;2.42;2.22;;;21.50;84.70;;;;;;6184759;28;89197;-71
2022/11/28 14:55:14;;;;;;;3.25;2.55;;;21.50;84.70;;;;;;6200213;28;89450;-70
2022/11/28 14:58:18;;;;;;;3.42;2.75;;;21.50;84.70;;;;;;6205362;28;89051;-71
2022/11/28 15:01:36;;;;;;;2.88;2.55;;;21.50;84.70;;;;;;6197623;28;89047;-70
2022/11/28 15:04:53;;;;;;;3.70;2.63;;;21.50;84.70;;;;;;6197165;28;89715;-70
2022/11/28 15:08:17;;;;;;;3.00;2.40;;;21.50;84.70;;;;;;6197547;28;87996;-70
2022/11/28 15:11:33;;;;;;;2.55;2.35;;;21.50;84.80;;;;;;6191129;28;90413;-72
2022/11/28 15:14:35;;;;;;;2.63;2.40;;;21.50;84.70;;;;;;6191407;28;89084;-71
2022/11/28 15:17:44;;;;;;;2.58;2.38;;;21.50;84.70;;;;;;6204213;28;89189;-70
2022/11/28 15:20:50;;;;;;;2.40;2.20;;;21.50;84.70;;;;;;6208868;28;89295;-71
2022/11/28 15:23:53;;;;;;;3.05;2.60;;;21.50;84.80;;;;;;6207447;28;88911;-71
2022/11/28 15:26:57;;;;;;;2.67;2.47;;;21.50;84.70;;;;;;6184637;28;89149;-70
2022/11/28 15:30:02;;;;;;;2.80;2.60;;;21.50;84.70;;;;;;6205211;28;89258;-70
2022/11/28 15:33:05;;;;;;;2.58;2.38;;;21.50;84.70;;;;;;6207792;28;88696;-71
2022/11/28 15:36:19;;;;;;;2.38;2.17;;;21.50;84.70;;;;;;6206581;28;89439;-70
2022/11/28 15:39:29;;;;;;;2.63;2.42;;;21.50;84.70;;;;;;6195799;28;89832;-71
2022/11/28 15:42:32;;;;;;;2.50;2.30;;;21.50;84.60;;;;;;6196406;28;90419;-71
2022/11/28 15:45:35;;;;;;;2.67;2.47;;;21.50;84.60;;;;;;6197918;28;89118;-70
2022/11/28 15:48:48;;;;;;;2.60;2.20;;;21.60;85.50;;;;;;6192094;28;88063;-71
2022/11/28 15:51:53;;;;;;;3.38;2.85;;;21.60;84.60;;;;;;6205368;28;89156;-71
2022/11/28 15:54:55;;;;;;;2.63;2.35;;;21.60;84.70;;;;;;6196745;28;89312;-71
2022/11/28 15:58:18;;;;;;;2.60;2.40;;;21.60;84.70;;;;;;6208058;28;89202;-71
2022/11/28 16:01:22;;;;;;;2.97;2.60;;;21.60;84.60;;;;;;6195054;28;88992;-71
2022/11/28 16:04:26;;;;;;;2.30;2.10;;;21.60;84.60;;;;;;6181951;28;88634;-71
2022/11/28 16:07:28;;;;;;;2.78;2.40;;;21.60;84.60;;;;;;6196301;28;89201;-71
2022/11/28 16:10:35;;;;;;;2.95;2.65;;;21.60;84.60;;;;;;6192126;28;89113;-71
2022/11/28 16:13:39;;;;;;;2.88;2.47;;;21.60;84.70;;;;;;6191281;28;90004;-71